createdAt,value
2019-04-01T00:00:53.566Z,5.93
2019-04-01T00:01:53.583Z,5.92
2019-04-01T00:02:53.579Z,5.87
2019-04-01T00:03:53.539Z,5.83
2019-04-01T00:04:53.529Z,5.78
2019-04-01T00:05:53.513Z,5.74
2019-04-01T00:06:53.524Z,5.78
2019-04-01T00:07:53.488Z,5.84
2019-04-01T00:08:53.483Z,5.81
2019-04-01T00:09:53.466Z,5.88
2019-04-01T00:10:53.455Z,5.84
2019-04-01T00:11:53.472Z,5.80
2019-04-01T00:12:53.434Z,5.81
2019-04-01T00:13:53.422Z,5.74
2019-04-01T00:14:53.412Z,5.75
2019-04-01T00:15:53.406Z,5.77
2019-04-01T00:16:53.416Z,5.73
2019-04-01T00:17:53.385Z,5.80
2019-04-01T00:19:03.031Z,5.75
2019-04-01T00:19:54.356Z,5.70
2019-04-01T00:20:53.346Z,5.67
2019-04-01T00:21:53.362Z,5.60
2019-04-01T00:22:53.437Z,5.60
2019-04-01T00:23:53.313Z,5.59
2019-04-01T00:24:53.320Z,5.55
2019-04-01T00:25:53.295Z,5.62
2019-04-01T00:26:53.306Z,5.51
2019-04-01T00:27:53.273Z,5.49
2019-04-01T00:28:53.259Z,5.58
2019-04-01T00:29:53.249Z,5.41
2019-04-01T00:30:53.233Z,5.51
2019-04-01T00:31:53.253Z,5.55
2019-04-01T00:32:53.217Z,5.58
2019-04-01T00:33:53.201Z,5.49
2019-04-01T00:34:53.191Z,5.56
2019-04-01T00:35:53.179Z,5.51
2019-04-01T00:36:53.194Z,5.42
2019-04-01T00:37:53.155Z,5.52
2019-04-01T00:38:53.155Z,5.45
2019-04-01T00:39:53.132Z,5.45
2019-04-01T00:40:53.121Z,5.35
2019-04-01T00:41:53.136Z,5.35
2019-04-01T00:42:53.097Z,5.41
2019-04-01T00:43:53.090Z,5.35
2019-04-01T00:44:53.078Z,5.30
2019-04-01T00:45:53.073Z,5.22
2019-04-01T00:46:53.069Z,5.27
2019-04-01T00:47:53.072Z,5.37
2019-04-01T00:48:53.035Z,5.23
2019-04-01T00:49:53.022Z,5.26
2019-04-01T00:50:53.020Z,5.27
2019-04-01T00:51:53.000Z,5.29
2019-04-01T00:52:53.118Z,5.33
2019-04-01T00:53:52.981Z,5.26
2019-04-01T00:54:52.968Z,5.24
2019-04-01T00:55:52.957Z,5.24
2019-04-01T00:56:52.945Z,5.17
2019-04-01T00:57:52.970Z,5.19
2019-04-01T00:58:52.924Z,5.20
2019-04-01T00:59:52.912Z,5.12
2019-04-01T01:00:52.902Z,5.09
2019-04-01T01:01:52.891Z,5.11
2019-04-01T01:02:52.909Z,5.12
2019-04-01T01:03:52.870Z,5.14
2019-04-01T01:04:52.857Z,5.09
2019-04-01T01:05:52.848Z,5.19
2019-04-01T01:06:52.838Z,5.05
2019-04-01T01:07:52.851Z,5.08
2019-04-01T01:08:52.811Z,5.04
2019-04-01T01:09:52.800Z,5.08
2019-04-01T01:10:52.789Z,5.11
2019-04-01T01:11:52.782Z,5.19
2019-04-01T01:12:52.795Z,5.17
2019-04-01T01:13:52.763Z,5.20
2019-04-01T01:14:52.745Z,5.19
2019-04-01T01:15:52.739Z,5.19
2019-04-01T01:16:52.724Z,5.12
2019-04-01T01:17:52.739Z,5.14
2019-04-01T01:18:52.701Z,5.15
2019-04-01T01:19:52.691Z,5.09
2019-04-01T01:20:52.683Z,5.06
2019-04-01T01:21:52.674Z,5.06
2019-04-01T01:22:52.684Z,5.05
2019-04-01T01:23:52.648Z,5.04
2019-04-01T01:24:52.635Z,5.06
2019-04-01T01:25:52.624Z,5.02
2019-04-01T01:26:52.616Z,5.02
2019-04-01T01:27:52.603Z,4.99
2019-04-01T01:28:52.617Z,4.94
2019-04-01T01:29:52.581Z,4.88
2019-04-01T01:30:52.571Z,4.96
2019-04-01T01:31:52.557Z,4.93
2019-04-01T01:32:52.548Z,4.97
2019-04-01T01:33:52.562Z,4.94
2019-04-01T01:34:52.522Z,4.96
2019-04-01T01:35:52.516Z,4.97
2019-04-01T01:36:52.501Z,4.93
2019-04-01T01:37:52.490Z,4.88
2019-04-01T01:38:52.504Z,4.84
2019-04-01T01:39:52.469Z,4.90
2019-04-01T01:40:52.461Z,4.99
2019-04-01T01:41:52.445Z,4.93
2019-04-01T01:42:52.437Z,4.94
2019-04-01T01:43:52.450Z,4.88
2019-04-01T01:44:52.418Z,4.90
2019-04-01T01:45:52.405Z,4.90
2019-04-01T01:46:52.390Z,4.75
2019-04-01T01:47:52.382Z,4.84
2019-04-01T01:48:52.394Z,4.80
2019-04-01T01:49:52.361Z,4.79
2019-04-01T01:50:52.346Z,4.68
2019-04-01T01:51:52.335Z,4.75
2019-04-01T01:52:52.326Z,4.69
2019-04-01T01:53:52.339Z,4.65
2019-04-01T01:54:52.301Z,4.71
2019-04-01T01:55:52.292Z,4.79
2019-04-01T01:56:52.283Z,4.72
2019-04-01T01:57:52.273Z,4.65
2019-04-01T01:58:52.283Z,4.68
2019-04-01T01:59:52.247Z,4.84
2019-04-01T02:00:52.235Z,4.86
2019-04-01T02:01:52.227Z,4.68
2019-04-01T02:02:52.218Z,4.77
2019-04-01T02:03:52.230Z,4.84
2019-04-01T02:04:52.193Z,4.86
2019-04-01T02:05:52.182Z,4.90
2019-04-01T02:06:52.180Z,4.87
2019-04-01T02:07:52.160Z,4.90
2019-04-01T02:08:52.173Z,4.93
2019-04-01T02:09:52.138Z,4.90
2019-04-01T02:10:52.132Z,4.94
2019-04-01T02:11:52.119Z,4.91
2019-04-01T02:12:52.104Z,4.90
2019-04-01T02:13:52.119Z,4.90
2019-04-01T02:14:52.084Z,4.84
2019-04-01T02:15:52.072Z,4.79
2019-04-01T02:16:52.059Z,4.87
2019-04-01T02:17:52.048Z,4.80
2019-04-01T02:18:52.049Z,4.84
2019-04-01T02:19:52.051Z,4.84
2019-04-01T02:20:52.013Z,4.83
2019-04-01T02:21:52.003Z,4.69
2019-04-01T02:22:51.999Z,4.86
2019-04-01T02:23:51.988Z,4.80
2019-04-01T02:24:52.000Z,4.79
2019-04-01T02:25:51.961Z,4.68
2019-04-01T02:26:51.950Z,4.69
2019-04-01T02:27:51.940Z,4.75
2019-04-01T02:28:51.934Z,4.71
2019-04-01T02:29:51.941Z,4.71
2019-04-01T02:30:51.904Z,4.68
2019-04-01T02:31:51.898Z,4.65
2019-04-01T02:32:51.888Z,4.67
2019-04-01T02:33:51.879Z,4.71
2019-04-01T02:34:51.889Z,4.74
2019-04-01T02:35:51.852Z,4.72
2019-04-01T02:36:51.849Z,4.67
2019-04-01T02:37:51.828Z,4.75
2019-04-01T02:38:51.820Z,4.83
2019-04-01T02:39:51.841Z,4.67
2019-04-01T02:40:51.796Z,4.79
2019-04-01T02:41:51.782Z,4.79
2019-04-01T02:42:51.897Z,4.87
2019-04-01T02:43:51.762Z,4.75
2019-04-01T02:44:51.776Z,4.79
2019-04-01T02:45:51.746Z,4.79
2019-04-01T02:46:51.729Z,4.74
2019-04-01T02:47:51.717Z,4.71
2019-04-01T02:48:51.710Z,4.71
2019-04-01T02:49:51.724Z,4.68
2019-04-01T02:50:51.685Z,4.47
2019-04-01T02:51:51.674Z,4.46
2019-04-01T02:52:51.658Z,4.39
2019-04-01T02:53:51.662Z,4.44
2019-04-01T02:54:51.668Z,4.39
2019-04-01T02:55:51.628Z,4.39
2019-04-01T02:56:51.613Z,4.42
2019-04-01T02:57:51.601Z,4.28
2019-04-01T02:58:51.590Z,4.29
2019-04-01T02:59:51.609Z,4.21
2019-04-01T03:00:51.578Z,4.29
2019-04-01T03:01:51.562Z,4.16
2019-04-01T03:02:51.547Z,4.13
2019-04-01T03:03:51.541Z,4.24
2019-04-01T03:04:51.552Z,4.11
2019-04-01T03:05:51.510Z,4.08
2019-04-01T03:06:51.501Z,4.04
2019-04-01T03:07:51.489Z,4.00
2019-04-01T03:08:51.488Z,4.02
2019-04-01T03:09:51.471Z,3.99
2019-04-01T03:10:51.482Z,4.02
2019-04-01T03:11:51.446Z,3.95
2019-04-01T03:12:51.443Z,3.96
2019-04-01T03:13:51.430Z,3.98
2019-04-01T03:14:51.423Z,3.99
2019-04-01T03:15:51.425Z,4.02
2019-04-01T03:16:51.388Z,4.00
2019-04-01T03:17:51.382Z,4.07
2019-04-01T03:18:51.366Z,3.90
2019-04-01T03:19:51.358Z,4.02
2019-04-01T03:20:51.393Z,3.99
2019-04-01T03:21:51.337Z,3.93
2019-04-01T03:22:51.320Z,3.95
2019-04-01T03:23:51.308Z,4.00
2019-04-01T03:24:51.296Z,3.95
2019-04-01T03:25:51.322Z,3.96
2019-04-01T03:26:51.315Z,3.95
2019-04-01T03:27:51.265Z,3.96
2019-04-01T03:28:51.253Z,3.95
2019-04-01T03:29:51.263Z,3.96
2019-04-01T03:30:51.270Z,3.92
2019-04-01T03:31:51.220Z,3.82
2019-04-01T03:32:51.210Z,3.82
2019-04-01T03:33:51.196Z,3.81
2019-04-01T03:34:51.190Z,3.78
2019-04-01T03:35:51.198Z,3.75
2019-04-01T03:36:51.168Z,3.77
2019-04-01T03:37:51.151Z,3.67
2019-04-01T03:38:51.201Z,3.63
2019-04-01T03:39:51.129Z,3.63
2019-04-01T03:40:51.145Z,3.72
2019-04-01T03:41:51.142Z,3.70
2019-04-01T03:42:51.099Z,3.77
2019-04-01T03:43:51.088Z,3.77
2019-04-01T03:44:54.802Z,3.78
2019-04-01T03:45:51.087Z,3.81
2019-04-01T03:46:51.049Z,3.80
2019-04-01T03:47:51.039Z,3.86
2019-04-01T03:48:51.028Z,3.74
2019-04-01T03:49:51.027Z,3.75
2019-04-01T03:50:51.032Z,3.60
2019-04-01T03:51:50.992Z,3.60
2019-04-01T03:52:50.981Z,3.57
2019-04-01T03:53:50.973Z,3.42
2019-04-01T03:54:50.975Z,3.49
2019-04-01T03:55:50.960Z,3.44
2019-04-01T03:56:50.964Z,3.35
2019-04-01T03:57:50.928Z,3.34
2019-04-01T03:58:50.915Z,3.30
2019-04-01T03:59:50.904Z,3.31
2019-04-01T04:00:50.892Z,3.37
2019-04-01T04:01:50.911Z,3.26
2019-04-01T04:02:50.875Z,3.26
2019-04-01T04:03:50.858Z,3.25
2019-04-01T04:04:50.851Z,3.30
2019-04-01T04:05:50.835Z,3.28
2019-04-01T04:06:50.853Z,3.33
2019-04-01T04:07:50.813Z,3.33
2019-04-01T04:08:50.802Z,3.37
2019-04-01T04:09:50.801Z,3.35
2019-04-01T04:10:50.779Z,3.33
2019-04-01T04:11:50.798Z,3.26
2019-04-01T04:12:50.761Z,3.30
2019-04-01T04:13:50.748Z,3.35
2019-04-01T04:14:51.372Z,3.25
2019-04-01T04:15:50.724Z,3.31
2019-04-01T04:16:50.738Z,3.22
2019-04-01T04:17:50.700Z,3.20
2019-04-01T04:18:50.689Z,3.20
2019-04-01T04:19:50.679Z,3.20
2019-04-01T04:20:50.669Z,3.28
2019-04-01T04:21:50.685Z,3.25
2019-04-01T04:22:50.648Z,3.26
2019-04-01T04:23:50.649Z,3.30
2019-04-01T04:24:50.625Z,3.31
2019-04-01T04:25:50.616Z,3.39
2019-04-01T04:26:50.641Z,3.39
2019-04-01T04:27:50.588Z,3.33
2019-04-01T04:28:50.580Z,3.34
2019-04-01T04:29:50.577Z,3.41
2019-04-01T04:30:50.559Z,3.44
2019-04-01T04:31:50.568Z,3.45
2019-04-01T04:32:50.543Z,3.39
2019-04-01T04:33:50.521Z,3.52
2019-04-01T04:34:50.516Z,3.56
2019-04-01T04:35:50.505Z,3.42
2019-04-01T04:36:50.513Z,3.45
2019-04-01T04:37:50.475Z,3.44
2019-04-01T04:38:50.467Z,3.39
2019-04-01T04:39:50.457Z,3.35
2019-04-01T04:40:50.448Z,3.26
2019-04-01T04:41:50.437Z,3.25
2019-04-01T04:42:50.451Z,3.22
2019-04-01T04:43:50.409Z,3.19
2019-04-01T04:44:50.398Z,3.25
2019-04-01T04:45:50.387Z,3.25
2019-04-01T04:46:50.381Z,3.20
2019-04-01T04:47:50.390Z,3.25
2019-04-01T04:48:50.354Z,3.28
2019-04-01T04:49:50.350Z,3.20
2019-04-01T04:50:50.332Z,3.19
2019-04-01T04:51:50.320Z,3.19
2019-04-01T04:52:50.339Z,3.12
2019-04-01T04:53:50.368Z,3.08
2019-04-01T04:54:50.290Z,3.08
2019-04-01T04:55:50.275Z,3.13
2019-04-01T04:56:50.263Z,3.01
2019-04-01T04:57:50.278Z,3.08
2019-04-01T04:58:50.241Z,2.97
2019-04-01T04:59:50.229Z,3.01
2019-04-01T05:00:50.219Z,2.99
2019-04-01T05:01:50.211Z,2.97
2019-04-01T05:02:50.248Z,2.98
2019-04-01T05:03:50.197Z,2.94
2019-04-01T05:04:50.178Z,2.95
2019-04-01T05:05:50.170Z,2.98
2019-04-01T05:06:50.158Z,2.90
2019-04-01T05:07:50.167Z,2.95
2019-04-01T05:08:50.142Z,2.97
2019-04-01T05:09:50.123Z,2.95
2019-04-01T05:10:50.109Z,2.95
2019-04-01T05:11:50.095Z,3.10
2019-04-01T05:12:50.111Z,3.07
2019-04-01T05:13:50.075Z,3.16
2019-04-01T05:14:50.063Z,3.15
2019-04-01T05:15:50.051Z,3.13
2019-04-01T05:16:50.042Z,3.04
2019-04-01T05:17:50.059Z,3.12
2019-04-01T05:18:50.019Z,3.10
2019-04-01T05:19:50.007Z,3.04
2019-04-01T05:20:49.996Z,2.92
2019-04-01T05:21:49.990Z,2.89
2019-04-01T05:22:50.002Z,2.94
2019-04-01T05:23:49.964Z,2.99
2019-04-01T05:24:49.949Z,3.04
2019-04-01T05:25:49.938Z,2.98
2019-04-01T05:26:49.928Z,2.98
2019-04-01T05:27:49.943Z,2.95
2019-04-01T05:28:49.904Z,2.94
2019-04-01T05:29:49.895Z,3.01
2019-04-01T05:30:49.882Z,2.95
2019-04-01T05:31:49.871Z,2.97
2019-04-01T05:32:49.869Z,3.08
2019-04-01T05:33:55.589Z,2.99
2019-04-01T05:34:50.840Z,2.99
2019-04-01T05:35:49.829Z,2.99
2019-04-01T05:36:49.815Z,2.99
2019-04-01T05:37:49.808Z,2.99
2019-04-01T05:38:49.820Z,2.98
2019-04-01T05:39:49.783Z,2.99
2019-04-01T05:40:49.771Z,3.01
2019-04-01T05:41:49.762Z,3.05
2019-04-01T05:42:49.750Z,3.12
2019-04-01T05:43:49.770Z,3.15
2019-04-01T05:44:49.728Z,3.12
2019-04-01T05:45:49.714Z,3.12
2019-04-01T05:46:49.704Z,3.23
2019-04-01T05:47:49.696Z,3.15
2019-04-01T05:48:49.711Z,3.22
2019-04-01T05:49:49.670Z,3.15
2019-04-01T05:50:49.669Z,3.20
2019-04-01T05:51:49.648Z,3.28
2019-04-01T05:52:49.641Z,3.22
2019-04-01T05:53:49.658Z,3.39
2019-04-01T05:54:49.615Z,3.30
2019-04-01T05:55:49.604Z,3.26
2019-04-01T05:56:49.595Z,3.42
2019-04-01T05:57:49.581Z,3.35
2019-04-01T05:58:49.596Z,3.39
2019-04-01T05:59:49.558Z,3.34
2019-04-01T06:00:49.547Z,3.33
2019-04-01T06:01:49.541Z,3.42
2019-04-01T06:02:49.523Z,3.44
2019-04-01T06:03:49.541Z,3.44
2019-04-01T06:04:49.505Z,3.41
2019-04-01T06:05:49.490Z,3.56
2019-04-01T06:06:49.480Z,3.53
2019-04-01T06:07:49.468Z,3.68
2019-04-01T06:08:49.484Z,3.63
2019-04-01T06:09:49.446Z,3.67
2019-04-01T06:10:49.435Z,3.64
2019-04-01T06:11:49.424Z,3.68
2019-04-01T06:12:49.412Z,3.77
2019-04-01T06:13:49.427Z,3.75
2019-04-01T06:14:49.393Z,3.75
2019-04-01T06:15:49.378Z,3.84
2019-04-01T06:16:49.376Z,3.88
2019-04-01T06:17:49.361Z,4.02
2019-04-01T06:18:49.428Z,4.00
2019-04-01T06:19:49.335Z,4.04
2019-04-01T06:20:49.330Z,3.99
2019-04-01T06:21:49.312Z,4.04
2019-04-01T06:22:49.302Z,4.10
2019-04-01T06:23:49.324Z,4.06
2019-04-01T06:24:49.279Z,4.11
2019-04-01T06:25:49.266Z,4.16
2019-04-01T06:26:49.264Z,4.18
2019-04-01T06:27:49.244Z,4.21
2019-04-01T06:28:49.238Z,4.34
2019-04-01T06:29:49.247Z,4.32
2019-04-01T06:30:49.210Z,4.39
2019-04-01T06:31:49.200Z,4.42
2019-04-01T06:32:49.285Z,4.49
2019-04-01T06:33:49.180Z,4.51
2019-04-01T06:34:52.926Z,4.53
2019-04-01T06:35:49.154Z,4.59
2019-04-01T06:36:49.144Z,4.64
2019-04-01T06:37:49.132Z,4.68
2019-04-01T06:38:49.120Z,4.77
2019-04-01T06:39:49.134Z,4.69
2019-04-01T06:40:49.106Z,4.77
2019-04-01T06:41:49.088Z,4.87
2019-04-01T06:42:49.080Z,4.90
2019-04-01T06:43:49.066Z,4.93
2019-04-01T06:44:49.080Z,4.93
2019-04-01T06:45:49.041Z,4.94
2019-04-01T06:46:49.032Z,5.02
2019-04-01T06:47:49.020Z,5.09
2019-04-01T06:48:49.010Z,5.09
2019-04-01T06:49:49.024Z,5.02
2019-04-01T06:50:48.985Z,5.11
2019-04-01T06:51:48.977Z,5.11
2019-04-01T06:52:48.967Z,5.24
2019-04-01T06:53:48.957Z,5.27
2019-04-01T06:54:48.968Z,5.27
2019-04-01T06:55:48.929Z,5.38
2019-04-01T06:56:48.921Z,5.48
2019-04-01T06:57:48.914Z,5.49
2019-04-01T06:58:48.897Z,5.59
2019-04-01T06:59:48.912Z,5.49
2019-04-01T07:00:48.888Z,5.55
2019-04-01T07:01:48.870Z,5.56
2019-04-01T07:02:48.852Z,5.65
2019-04-01T07:03:48.842Z,5.65
2019-04-01T07:04:48.856Z,5.65
2019-04-01T07:05:48.827Z,5.67
2019-04-01T07:06:48.835Z,5.67
2019-04-01T07:09:50.624Z,5.83
2019-04-01T07:10:47.971Z,5.92
2019-04-01T07:11:47.951Z,5.95
2019-04-01T07:12:47.940Z,5.92
2019-04-01T07:13:47.930Z,6.08
2019-04-01T07:14:47.945Z,6.05
2019-04-01T07:15:47.931Z,6.05
2019-04-01T07:16:47.897Z,6.03
2019-04-01T07:17:47.889Z,6.13
2019-04-01T07:18:47.876Z,6.21
2019-04-01T07:19:47.882Z,6.16
2019-04-01T07:20:47.877Z,6.28
2019-04-01T07:21:47.843Z,6.32
2019-04-01T07:22:47.845Z,6.39
2019-04-01T07:23:47.827Z,6.45
2019-04-01T07:24:47.811Z,6.48
2019-04-01T07:25:47.829Z,6.57
2019-04-01T07:26:47.796Z,6.60
2019-04-01T07:27:47.784Z,6.68
2019-04-01T07:28:47.796Z,6.69
2019-04-01T07:29:47.760Z,6.79
2019-04-01T07:30:47.771Z,6.76
2019-04-01T07:31:47.735Z,6.96
2019-04-01T07:32:47.726Z,6.90
2019-04-01T07:33:47.713Z,6.99
2019-04-01T07:34:47.728Z,7.00
2019-04-01T07:35:47.715Z,7.04
2019-04-01T07:36:47.682Z,7.04
2019-04-01T07:37:47.676Z,7.05
2019-04-01T07:38:47.659Z,7.04
2019-04-01T07:39:47.647Z,7.14
2019-04-01T07:40:47.662Z,7.07
2019-04-01T07:41:47.626Z,7.16
2019-04-01T07:42:47.711Z,7.23
2019-04-01T07:43:47.602Z,7.16
2019-04-01T07:44:47.591Z,7.29
2019-04-01T07:45:47.680Z,7.36
2019-04-01T07:46:47.567Z,7.30
2019-04-01T07:47:47.610Z,7.41
2019-04-01T07:48:47.568Z,7.37
2019-04-01T07:49:47.556Z,7.51
2019-04-01T07:50:47.549Z,7.50
2019-04-01T07:51:47.513Z,7.57
2019-04-01T07:52:47.504Z,7.58
2019-04-01T07:53:47.497Z,7.62
2019-04-01T07:54:47.481Z,7.69
2019-04-01T07:55:47.492Z,7.71
2019-04-01T07:56:47.476Z,7.60
2019-04-01T07:57:47.446Z,7.66
2019-04-01T07:58:47.433Z,7.73
2019-04-01T07:59:47.425Z,7.81
2019-04-01T08:00:47.435Z,7.70
2019-04-01T08:01:47.401Z,7.77
2019-04-01T08:02:48.994Z,7.85
2019-04-01T08:03:47.380Z,7.77
2019-04-01T08:04:47.367Z,7.84
2019-04-01T08:05:47.390Z,7.79
2019-04-01T08:06:47.380Z,7.95
2019-04-01T08:07:47.336Z,7.88
2019-04-01T08:08:47.348Z,7.99
2019-04-01T08:09:47.313Z,7.96
2019-04-01T08:10:47.305Z,8.04
2019-04-01T08:11:50.025Z,8.12
2019-04-01T08:12:47.279Z,7.96
2019-04-01T08:13:47.266Z,8.17
2019-04-01T08:14:47.261Z,8.21
2019-04-01T08:15:47.245Z,8.24
2019-04-01T08:16:47.258Z,8.27
2019-04-01T08:17:47.224Z,8.18
2019-04-01T08:18:47.211Z,8.31
2019-04-01T08:19:47.208Z,8.29
2019-04-01T08:20:47.204Z,8.39
2019-04-01T08:21:47.204Z,8.43
2019-04-01T08:22:47.166Z,8.45
2019-04-01T08:23:47.185Z,8.54
2019-04-01T08:24:47.145Z,8.57
2019-04-01T08:25:48.074Z,8.63
2019-04-01T08:26:47.157Z,8.67
2019-04-01T08:27:47.117Z,8.73
2019-04-01T08:28:47.101Z,8.68
2019-04-01T08:29:47.091Z,8.73
2019-04-01T08:30:47.083Z,8.80
2019-04-01T08:31:47.091Z,8.76
2019-04-01T08:32:47.076Z,8.93
2019-04-01T08:33:50.150Z,8.91
2019-04-01T08:34:47.035Z,8.94
2019-04-01T08:35:47.024Z,8.97
2019-04-01T08:36:47.035Z,8.96
2019-04-01T08:37:46.999Z,9.10
2019-04-01T08:38:47.011Z,9.08
2019-04-01T08:39:46.978Z,9.08
2019-04-01T08:40:46.969Z,9.04
2019-04-01T08:41:46.977Z,9.15
2019-04-01T08:42:48.962Z,9.19
2019-04-01T08:43:46.939Z,9.13
2019-04-01T08:44:46.954Z,9.24
2019-04-01T08:45:46.915Z,9.26
2019-04-01T08:46:46.925Z,9.40
2019-04-01T08:47:46.890Z,9.38
2019-04-01T08:48:46.883Z,9.40
2019-04-01T08:49:46.872Z,9.44
2019-04-01T08:50:46.857Z,9.44
2019-04-01T08:51:46.844Z,9.52
2019-04-01T08:52:46.855Z,9.55
2019-04-01T08:53:46.833Z,9.55
2019-04-01T08:54:46.829Z,9.65
2019-04-01T08:55:46.798Z,9.62
2019-04-01T08:56:46.794Z,9.67
2019-04-01T08:57:46.799Z,9.65
2019-04-01T08:58:46.765Z,9.60
2019-04-01T08:59:46.756Z,9.77
2019-04-01T09:00:46.748Z,9.68
2019-04-01T09:01:46.734Z,9.81
2019-04-01T09:02:46.744Z,9.77
2019-04-01T09:03:46.711Z,9.89
2019-04-01T09:04:46.698Z,9.99
2019-04-01T09:05:46.701Z,10.04
2019-04-01T09:06:46.703Z,10.10
2019-04-01T09:07:46.688Z,10.28
2019-04-01T09:08:46.654Z,10.24
2019-04-01T09:09:46.643Z,10.36
2019-04-01T09:10:46.631Z,10.26
2019-04-01T09:11:46.623Z,10.35
2019-04-01T09:12:46.652Z,10.43
2019-04-01T09:13:46.599Z,10.52
2019-04-01T09:14:46.588Z,10.51
2019-04-01T09:15:46.579Z,10.57
2019-04-01T09:16:46.565Z,10.52
2019-04-01T09:17:46.579Z,10.68
2019-04-01T09:18:46.574Z,10.68
2019-04-01T09:19:46.544Z,10.73
2019-04-01T09:20:46.521Z,10.80
2019-04-01T09:21:46.512Z,10.81
2019-04-01T09:22:46.531Z,10.91
2019-04-01T09:23:46.489Z,10.87
2019-04-01T09:24:46.487Z,10.94
2019-04-01T09:25:46.475Z,10.90
2019-04-01T09:26:46.455Z,10.93
2019-04-01T09:27:46.475Z,11.03
2019-04-01T09:28:46.431Z,11.11
2019-04-01T09:29:46.419Z,11.20
2019-04-01T09:30:46.410Z,11.26
2019-04-01T09:31:46.414Z,11.19
2019-04-01T09:32:46.415Z,11.20
2019-04-01T09:33:46.379Z,11.39
2019-04-01T09:34:46.363Z,11.44
2019-04-01T09:35:46.363Z,11.41
2019-04-01T09:36:46.341Z,11.57
2019-04-01T09:37:46.381Z,11.57
2019-04-01T09:38:46.325Z,11.60
2019-04-01T09:39:46.309Z,11.69
2019-04-01T09:40:46.328Z,11.75
2019-04-01T09:41:46.290Z,11.72
2019-04-01T09:42:46.293Z,11.78
2019-04-01T09:43:46.300Z,11.85
2019-04-01T09:44:46.272Z,11.98
2019-04-01T09:45:46.242Z,12.01
2019-04-01T09:46:48.991Z,12.04
2019-04-01T09:47:46.266Z,12.05
2019-04-01T09:48:46.234Z,12.12
2019-04-01T09:49:46.210Z,12.21
2019-04-01T09:50:46.184Z,12.30
2019-04-01T09:51:48.823Z,12.22
2019-04-01T09:52:46.165Z,12.29
2019-04-01T09:53:46.175Z,12.37
2019-04-01T09:54:46.141Z,12.46
2019-04-01T09:55:46.136Z,12.54
2019-04-01T09:56:46.125Z,12.54
2019-04-01T09:57:46.110Z,12.58
2019-04-01T09:58:46.131Z,12.70
2019-04-01T09:59:46.093Z,12.66
2019-04-01T10:00:46.078Z,12.77
2019-04-01T10:01:46.068Z,12.80
2019-04-01T10:02:46.051Z,12.71
2019-04-01T10:03:46.064Z,12.89
2019-04-01T10:04:46.032Z,12.89
2019-04-01T10:05:46.052Z,13.04
2019-04-01T10:06:46.008Z,13.03
2019-04-01T10:07:46.153Z,13.13
2019-04-01T10:08:46.010Z,13.13
2019-04-01T10:09:45.995Z,13.25
2019-04-01T10:10:45.964Z,13.38
2019-04-01T10:11:45.952Z,13.39
2019-04-01T10:12:45.946Z,13.44
2019-04-01T10:13:45.957Z,13.55
2019-04-01T10:14:45.923Z,13.62
2019-04-01T10:15:45.906Z,13.69
2019-04-01T10:16:45.917Z,13.73
2019-04-01T10:17:45.883Z,13.86
2019-04-01T10:18:45.899Z,13.81
2019-04-01T10:19:45.861Z,13.86
2019-04-01T10:20:45.850Z,13.90
2019-04-01T10:21:45.846Z,13.94
2019-04-01T10:22:45.832Z,13.96
2019-04-01T10:23:45.859Z,14.02
2019-04-01T10:24:45.826Z,14.09
2019-04-01T10:25:45.798Z,14.13
2019-04-01T10:26:45.795Z,14.30
2019-04-01T10:27:45.773Z,14.35
2019-04-01T10:28:45.792Z,14.36
2019-04-01T10:29:45.753Z,14.44
2019-04-01T10:30:45.741Z,14.41
2019-04-01T10:31:45.729Z,14.45
2019-04-01T10:32:45.718Z,14.45
2019-04-01T10:33:45.710Z,14.56
2019-04-01T10:34:45.720Z,14.59
2019-04-01T10:35:45.687Z,14.69
2019-04-01T10:36:45.672Z,14.66
2019-04-01T10:37:45.695Z,14.80
2019-04-01T10:38:46.904Z,14.80
2019-04-01T10:39:45.667Z,14.91
2019-04-01T10:40:45.630Z,15.00
2019-04-01T10:41:45.616Z,15.03
2019-04-01T10:42:45.627Z,15.27
2019-04-01T10:43:45.593Z,15.22
2019-04-01T10:44:45.609Z,15.33
2019-04-01T10:45:45.601Z,15.40
2019-04-01T10:46:45.684Z,15.53
2019-04-01T10:47:45.603Z,15.55
2019-04-01T10:48:45.600Z,15.53
2019-04-01T10:49:45.646Z,15.71
2019-04-01T10:50:45.538Z,15.76
2019-04-01T10:51:45.539Z,15.88
2019-04-01T10:52:45.623Z,15.89
2019-04-01T10:53:45.509Z,15.96
2019-04-01T10:54:45.493Z,16.22
2019-04-01T10:55:45.469Z,16.16
2019-04-01T10:56:45.459Z,16.26
2019-04-01T10:57:45.444Z,16.34
2019-04-01T10:58:45.456Z,16.41
2019-04-01T10:59:45.481Z,16.41
2019-04-01T11:00:45.420Z,16.57
2019-04-01T11:01:45.484Z,16.45
2019-04-01T11:02:45.391Z,16.54
2019-04-01T11:03:45.463Z,16.62
2019-04-01T11:04:45.437Z,16.60
2019-04-01T11:05:45.354Z,16.75
2019-04-01T11:06:45.419Z,16.80
2019-04-01T11:07:45.352Z,16.87
2019-04-01T11:08:45.359Z,16.98
2019-04-01T11:09:45.325Z,16.95
2019-04-01T11:10:45.295Z,17.03
2019-04-01T11:11:45.284Z,17.03
2019-04-01T11:12:45.271Z,17.20
2019-04-01T11:13:45.287Z,17.22
2019-04-01T11:14:45.270Z,17.39
2019-04-01T11:15:45.288Z,17.47
2019-04-01T11:16:46.085Z,17.55
2019-04-01T11:17:45.219Z,17.62
2019-04-01T11:18:45.244Z,17.80
2019-04-01T11:19:45.234Z,17.81
2019-04-01T11:20:45.179Z,17.80
2019-04-01T11:21:45.172Z,17.83
2019-04-01T11:22:45.166Z,17.92
2019-04-01T11:23:45.199Z,17.92
2019-04-01T11:24:45.140Z,17.99
2019-04-01T11:25:45.149Z,17.95
2019-04-01T11:26:45.115Z,17.99
2019-04-01T11:27:45.107Z,18.10
2019-04-01T11:28:45.090Z,18.14
2019-04-01T11:29:45.082Z,18.14
2019-04-01T11:30:45.094Z,18.16
2019-04-01T11:31:45.120Z,18.20
2019-04-01T11:32:45.048Z,18.35
2019-04-01T11:33:45.103Z,18.34
2019-04-01T11:34:45.086Z,18.46
2019-04-01T11:35:46.017Z,18.50
2019-04-01T11:36:45.057Z,18.56
2019-04-01T11:37:45.012Z,18.65
2019-04-01T11:38:45.011Z,18.75
2019-04-01T11:39:45.012Z,18.82
2019-04-01T11:40:45.003Z,18.97
2019-04-01T11:41:44.959Z,19.07
2019-04-01T11:42:44.989Z,19.02
2019-04-01T11:43:45.000Z,18.99
2019-04-01T11:44:44.917Z,18.90
2019-04-01T11:45:44.949Z,18.97
2019-04-01T11:46:44.928Z,19.06
2019-04-01T11:47:44.900Z,19.05
2019-04-01T11:48:44.908Z,19.13
2019-04-01T11:49:44.928Z,19.23
2019-04-01T11:50:47.694Z,19.21
2019-04-01T11:51:44.854Z,19.24
2019-04-01T11:52:44.887Z,19.23
2019-04-01T11:53:44.820Z,19.16
2019-04-01T11:54:44.809Z,19.16
2019-04-01T11:55:44.823Z,19.21
2019-04-01T11:56:44.780Z,19.27
2019-04-01T11:57:44.785Z,19.30
2019-04-01T11:58:44.759Z,19.38
2019-04-01T11:59:44.746Z,19.45
2019-04-01T12:00:44.760Z,19.46
2019-04-01T12:01:44.730Z,19.49
2019-04-01T12:02:46.145Z,19.61
2019-04-01T12:03:44.746Z,19.52
2019-04-01T12:04:44.709Z,19.42
2019-04-01T12:05:44.688Z,19.40
2019-04-01T12:06:44.710Z,19.42
2019-04-01T12:07:44.660Z,19.17
2019-04-01T12:08:44.646Z,19.27
2019-04-01T12:09:44.648Z,19.28
2019-04-01T12:10:44.628Z,19.42
2019-04-01T12:11:44.638Z,19.42
2019-04-01T12:12:44.604Z,19.52
2019-04-01T12:13:44.600Z,19.49
2019-04-01T12:14:44.582Z,19.71
2019-04-01T12:15:44.586Z,19.82
2019-04-01T12:16:44.583Z,19.94
2019-04-01T12:17:44.553Z,19.98
2019-04-01T12:18:44.811Z,19.97
2019-04-01T12:19:44.539Z,19.97
2019-04-01T12:20:44.526Z,20.00
2019-04-01T12:21:44.536Z,19.82
2019-04-01T12:22:45.894Z,19.72
2019-04-01T12:23:44.480Z,19.83
2019-04-01T12:24:44.494Z,19.83
2019-04-01T12:25:44.458Z,19.89
2019-04-01T12:26:44.475Z,19.75
2019-04-01T12:27:45.293Z,19.83
2019-04-01T12:28:44.425Z,19.82
2019-04-01T12:29:48.000Z,19.90
2019-04-01T12:30:44.403Z,19.92
2019-04-01T12:31:44.428Z,19.97
2019-04-01T12:32:44.383Z,19.94
2019-04-01T12:33:44.379Z,19.76
2019-04-01T12:34:44.363Z,19.85
2019-04-01T12:35:44.360Z,19.89
2019-04-01T12:36:44.366Z,19.83
2019-04-01T12:37:45.834Z,19.79
2019-04-01T12:38:44.321Z,19.71
2019-04-01T12:39:44.306Z,19.87
2019-04-01T12:40:44.311Z,20.00
2019-04-01T12:41:44.318Z,20.02
2019-04-01T12:42:44.271Z,20.16
2019-04-01T12:43:44.262Z,20.16
2019-04-01T12:44:44.260Z,20.17
2019-04-01T12:45:44.240Z,20.17
2019-04-01T12:46:44.261Z,20.23
2019-04-01T12:47:44.216Z,20.31
2019-04-01T12:48:44.210Z,20.34
2019-04-01T12:49:44.197Z,20.37
2019-04-01T12:50:44.185Z,20.35
2019-04-01T12:51:44.179Z,20.27
2019-04-01T12:52:44.186Z,20.35
2019-04-01T12:53:44.153Z,20.44
2019-04-01T12:54:44.696Z,20.54
2019-04-01T12:55:45.041Z,20.60
2019-04-01T12:56:44.130Z,20.68
2019-04-01T12:57:44.134Z,20.63
2019-04-01T12:58:44.101Z,20.76
2019-04-01T12:59:45.822Z,20.71
2019-04-01T13:00:44.089Z,20.72
2019-04-01T13:01:44.066Z,20.73
2019-04-01T13:02:44.083Z,20.69
2019-04-01T13:03:44.049Z,20.69
2019-04-01T13:04:44.042Z,20.68
2019-04-01T13:05:44.031Z,20.76
2019-04-01T13:06:44.022Z,20.83
2019-04-01T13:07:44.042Z,20.72
2019-04-01T13:08:44.002Z,20.63
2019-04-01T13:09:43.986Z,20.42
2019-04-01T13:10:43.969Z,20.33
2019-04-01T13:11:43.964Z,20.34
2019-04-01T13:12:44.074Z,20.44